createdAt,value
2017-09-25T00:01:42.218Z,100987.18
2017-09-25T00:04:09.691Z,100984.08
2017-09-25T00:06:37.239Z,100981.44
2017-09-25T00:09:04.717Z,100984.34
2017-09-25T00:11:32.173Z,100987.00
2017-09-25T00:13:59.662Z,100983.45
2017-09-25T00:16:27.116Z,100987.15
2017-09-25T00:18:54.580Z,100986.09
2017-09-25T00:21:22.063Z,100984.50
2017-09-25T00:23:49.520Z,100983.98
2017-09-25T00:26:17.022Z,100987.66
2017-09-25T00:28:44.491Z,100984.33
2017-09-25T00:31:11.969Z,100982.94
2017-09-25T00:33:39.431Z,100979.97
2017-09-25T00:36:06.916Z,100972.41
2017-09-25T00:38:34.375Z,100972.55
2017-09-25T00:41:01.850Z,100973.55
2017-09-25T00:43:29.302Z,100972.92
2017-09-25T00:45:56.787Z,100973.77
2017-09-25T00:48:24.243Z,100978.60
2017-09-25T00:50:51.724Z,100977.92
2017-09-25T00:53:26.671Z,100979.11
2017-09-25T00:55:54.153Z,100976.25
2017-09-25T00:58:21.615Z,100974.97
2017-09-25T01:01:00.960Z,100982.86
2017-09-25T01:03:40.395Z,100971.50
2017-09-25T01:06:19.767Z,100977.72
2017-09-25T01:08:47.241Z,100974.70
2017-09-25T01:11:14.732Z,100969.83
2017-09-25T01:13:42.196Z,100970.80
2017-09-25T01:16:09.702Z,100971.57
2017-09-25T01:18:37.187Z,100963.11
2017-09-25T01:21:04.745Z,100959.41
2017-09-25T01:23:32.194Z,100961.67
2017-09-25T01:25:59.670Z,100956.80
2017-09-25T01:28:27.183Z,100953.08
2017-09-25T01:30:54.669Z,100957.53
2017-09-25T01:33:22.176Z,100953.48
2017-09-25T01:35:49.632Z,100953.41
2017-09-25T01:38:17.117Z,100951.22
2017-09-25T01:40:44.621Z,100950.75
2017-09-25T01:43:12.117Z,100948.53
2017-09-25T01:45:39.567Z,100949.41
2017-09-25T01:48:07.044Z,100943.62
2017-09-25T01:50:34.508Z,100947.24
2017-09-25T01:53:01.997Z,100938.98
2017-09-25T01:55:29.551Z,100940.83
2017-09-25T01:57:57.036Z,100941.19
2017-09-25T02:00:24.575Z,100941.63
2017-09-25T02:02:52.058Z,100930.94
2017-09-25T02:05:19.518Z,100936.11
2017-09-25T02:07:47.009Z,100937.12
2017-09-25T02:10:14.464Z,100934.44
2017-09-25T02:12:41.931Z,100933.72
2017-09-25T02:15:09.380Z,100933.23
2017-09-25T02:17:36.850Z,100932.71
2017-09-25T02:20:04.309Z,100930.94
2017-09-25T02:22:31.798Z,100935.78
2017-09-25T02:24:59.284Z,100931.30
2017-09-25T02:27:26.758Z,100930.39
2017-09-25T02:29:54.236Z,100933.81
2017-09-25T02:32:21.706Z,100934.30
2017-09-25T02:34:49.184Z,100928.03
2017-09-25T02:37:16.641Z,100933.71
2017-09-25T02:39:44.185Z,100937.30
2017-09-25T02:42:11.641Z,100930.52
2017-09-25T02:44:39.112Z,100926.60
2017-09-25T02:47:06.650Z,100924.38
2017-09-25T02:49:34.133Z,100924.33
2017-09-25T02:52:01.586Z,100920.59
2017-09-25T02:54:29.068Z,100915.27
2017-09-25T02:56:56.523Z,100916.11
2017-09-25T02:59:24.004Z,100918.36
2017-09-25T03:01:51.481Z,100918.73
2017-09-25T03:04:18.968Z,100916.73
2017-09-25T03:06:46.447Z,100912.86
2017-09-25T03:09:13.936Z,100917.85
2017-09-25T03:11:41.415Z,100919.69
2017-09-25T03:14:08.901Z,100918.94
2017-09-25T03:16:36.366Z,100921.04
2017-09-25T03:19:03.854Z,100912.59
2017-09-25T03:21:31.325Z,100922.36
2017-09-25T03:23:58.805Z,100921.04
2017-09-25T03:26:26.263Z,100919.72
2017-09-25T03:28:53.755Z,100916.13
2017-09-25T03:31:21.216Z,100909.91
2017-09-25T03:33:48.727Z,100916.47
2017-09-25T03:36:16.314Z,100909.03
2017-09-25T03:38:43.789Z,100907.98
2017-09-25T03:41:11.269Z,100908.89
2017-09-25T03:43:38.723Z,100904.10
2017-09-25T03:46:06.191Z,100912.19
2017-09-25T03:48:33.649Z,100908.82
2017-09-25T03:51:01.118Z,100905.77
2017-09-25T03:53:28.581Z,100910.08
2017-09-25T03:55:56.064Z,100901.58
2017-09-25T03:58:23.546Z,100901.86
2017-09-25T04:00:51.032Z,100902.51
2017-09-25T04:03:18.515Z,100893.98
2017-09-25T04:05:45.996Z,100895.22
2017-09-25T04:08:13.457Z,100895.11
2017-09-25T04:10:40.936Z,100894.48
2017-09-25T04:13:08.432Z,100894.61
2017-09-25T04:15:35.921Z,100893.31
2017-09-25T04:18:03.375Z,100896.60
2017-09-25T04:20:30.861Z,100897.86
2017-09-25T04:22:58.327Z,100907.06
2017-09-25T04:25:25.816Z,100911.72
2017-09-25T04:27:53.273Z,100907.23
2017-09-25T04:30:20.753Z,100914.39
2017-09-25T04:32:48.206Z,100909.13
2017-09-25T04:35:15.701Z,100920.16
2017-09-25T04:37:43.173Z,100918.48
2017-09-25T04:40:10.660Z,100918.08
2017-09-25T04:42:38.128Z,100916.70
2017-09-25T04:45:05.685Z,100925.10
2017-09-25T04:47:33.159Z,100930.80
2017-09-25T04:50:00.707Z,100928.05
2017-09-25T04:52:28.196Z,100936.79
2017-09-25T04:54:55.665Z,100935.45
2017-09-25T04:57:23.153Z,100935.63
2017-09-25T04:59:50.635Z,100934.59
2017-09-25T05:02:18.110Z,100938.72
2017-09-25T05:04:45.592Z,100940.31
2017-09-25T05:07:13.111Z,100935.31
2017-09-25T05:09:40.587Z,100941.98
2017-09-25T05:12:08.065Z,100939.72
2017-09-25T05:14:35.520Z,100931.47
2017-09-25T05:17:03.001Z,100938.08
2017-09-25T05:19:30.443Z,100941.77
2017-09-25T05:21:57.931Z,100942.48
2017-09-25T05:24:25.393Z,100940.59
2017-09-25T05:26:52.867Z,100942.84
2017-09-25T05:29:20.322Z,100946.76
2017-09-25T05:31:47.796Z,100941.44
2017-09-25T05:34:15.254Z,100944.23
2017-09-25T05:36:42.723Z,100943.41
2017-09-25T05:39:10.189Z,100943.52
2017-09-25T05:41:37.683Z,100940.38
2017-09-25T05:44:05.158Z,100941.42
2017-09-25T05:46:32.616Z,100940.86
2017-09-25T05:49:00.159Z,100939.06
2017-09-25T05:51:27.619Z,100940.94
2017-09-25T05:53:55.104Z,100947.41
2017-09-25T05:56:22.570Z,100940.03
2017-09-25T05:58:50.065Z,100946.41
2017-09-25T06:01:17.529Z,100941.80
2017-09-25T06:03:44.993Z,100943.27
2017-09-25T06:06:12.594Z,100946.86
2017-09-25T06:08:40.056Z,100949.81
2017-09-25T06:11:07.549Z,100942.70
2017-09-25T06:13:35.007Z,100951.81
2017-09-25T06:16:02.474Z,100943.91
2017-09-25T06:18:29.929Z,100944.82
2017-09-25T06:20:57.407Z,100944.52
2017-09-25T06:23:24.898Z,100943.47
2017-09-25T06:25:52.380Z,100944.39
2017-09-25T06:28:19.850Z,100942.07
2017-09-25T06:30:47.325Z,100945.73
2017-09-25T06:33:14.800Z,100941.74
2017-09-25T06:35:42.272Z,100946.34
2017-09-25T06:38:09.750Z,100935.45
2017-09-25T06:40:37.232Z,100938.33
2017-09-25T06:43:04.722Z,100945.66
2017-09-25T06:45:32.211Z,100938.83
2017-09-25T06:47:59.689Z,100944.63
2017-09-25T06:50:27.176Z,100943.59
2017-09-25T06:52:54.642Z,100939.97
2017-09-25T06:55:22.115Z,100941.84
2017-09-25T06:57:49.576Z,100940.44
2017-09-25T07:00:17.112Z,100936.75
2017-09-25T07:02:44.580Z,100939.74
2017-09-25T07:05:12.079Z,100933.34
2017-09-25T07:07:39.553Z,100927.45
2017-09-25T07:10:07.071Z,100921.68
2017-09-25T07:12:34.512Z,100925.10
2017-09-25T07:15:02.024Z,100923.43
2017-09-25T07:17:29.469Z,100917.42
2017-09-25T07:19:56.942Z,100915.84
2017-09-25T07:22:24.424Z,100913.14
2017-09-25T07:24:51.933Z,100912.42
2017-09-25T07:27:19.405Z,100913.72
2017-09-25T07:29:46.874Z,100911.37
2017-09-25T07:32:14.355Z,100915.30
2017-09-25T07:34:41.811Z,100913.95
2017-09-25T07:37:09.287Z,100919.12
2017-09-25T07:39:36.753Z,100918.96
2017-09-25T07:42:04.232Z,100922.95
2017-09-25T07:44:31.696Z,100912.26
2017-09-25T07:46:59.181Z,100913.62
2017-09-25T07:49:26.805Z,100914.38
2017-09-25T07:51:54.282Z,100909.83
2017-09-25T07:54:21.755Z,100911.84
2017-09-25T07:56:49.227Z,100912.89
2017-09-25T07:59:16.789Z,100913.58
2017-09-25T08:01:44.280Z,100918.37
2017-09-25T08:04:11.798Z,100914.50
2017-09-25T08:06:39.276Z,100919.27
2017-09-25T08:09:06.759Z,100918.02
2017-09-25T08:11:34.248Z,100920.50
2017-09-25T08:14:01.728Z,100918.25
2017-09-25T08:16:29.320Z,100920.39
2017-09-25T08:18:56.794Z,100920.16
2017-09-25T08:21:24.275Z,100923.61
2017-09-25T08:23:51.737Z,100912.80
2017-09-25T08:26:19.234Z,100917.01
2017-09-25T08:28:46.777Z,100911.48
2017-09-25T08:31:14.350Z,100909.19
2017-09-25T08:33:41.808Z,100906.13
2017-09-25T08:36:09.356Z,100907.61
2017-09-25T08:38:36.917Z,100916.13
2017-09-25T08:41:04.388Z,100911.59
2017-09-25T08:43:31.938Z,100903.87
2017-09-25T08:45:59.416Z,100904.83
2017-09-25T08:48:26.988Z,100905.05
2017-09-25T08:50:54.464Z,100906.31
2017-09-25T08:53:21.960Z,100907.67
2017-09-25T08:55:49.424Z,100900.05
2017-09-25T08:58:16.946Z,100904.11
2017-09-25T09:00:44.423Z,100904.44
2017-09-25T09:03:11.899Z,100889.80
2017-09-25T09:05:39.369Z,100890.36
2017-09-25T09:08:06.866Z,100892.72
2017-09-25T09:10:34.328Z,100885.87
2017-09-25T09:13:02.017Z,100889.12
2017-09-25T09:15:29.527Z,100881.83
2017-09-25T09:17:57.028Z,100879.93
2017-09-25T09:20:24.485Z,100886.12
2017-09-25T09:22:52.013Z,100878.91
2017-09-25T09:25:19.473Z,100877.81
2017-09-25T09:27:47.072Z,100877.72
2017-09-25T09:30:14.541Z,100870.72
2017-09-25T09:32:42.107Z,100871.73
2017-09-25T09:35:09.565Z,100873.04
2017-09-25T09:37:37.101Z,100868.31
2017-09-25T09:40:04.572Z,100863.64
2017-09-25T09:42:32.038Z,100862.22
2017-09-25T09:44:59.563Z,100856.10
2017-09-25T09:47:27.044Z,100851.86
2017-09-25T09:49:54.589Z,100848.63
2017-09-25T09:52:22.043Z,100849.27
2017-09-25T09:54:49.587Z,100838.92
2017-09-25T09:57:17.065Z,100836.22
2017-09-25T09:59:44.622Z,100842.11
2017-09-25T10:02:12.088Z,100831.45
2017-09-25T10:04:39.585Z,100838.88
2017-09-25T10:07:07.050Z,100834.47
2017-09-25T10:09:34.549Z,100839.02
2017-09-25T10:12:02.009Z,100830.21
2017-09-25T10:14:29.493Z,100834.45
2017-09-25T10:16:57.017Z,100835.34
2017-09-25T10:19:24.589Z,100832.64
2017-09-25T10:21:52.031Z,100826.56
2017-09-25T10:24:19.513Z,100824.11
2017-09-25T10:26:46.973Z,100826.91
2017-09-25T10:29:14.477Z,100820.69
2017-09-25T10:31:41.936Z,100818.52
2017-09-25T10:34:09.422Z,100819.59
2017-09-25T10:36:36.885Z,100818.05
2017-09-25T10:39:04.382Z,100820.63
2017-09-25T10:41:31.841Z,100819.16
2017-09-25T10:43:59.305Z,100814.68
2017-09-25T10:46:26.901Z,100814.76
2017-09-25T10:48:54.352Z,100819.78
2017-09-25T10:51:21.818Z,100824.03
2017-09-25T10:53:49.280Z,100824.29
2017-09-25T10:56:16.766Z,100823.91
2017-09-25T10:58:44.289Z,100816.58
2017-09-25T11:01:11.769Z,100818.94
2017-09-25T11:03:39.231Z,100813.80
2017-09-25T11:06:06.713Z,100809.95
2017-09-25T11:08:34.170Z,100815.06
2017-09-25T11:11:01.820Z,100815.20
2017-09-25T11:13:29.274Z,100805.44
2017-09-25T11:15:56.753Z,100807.75
2017-09-25T11:18:24.224Z,100812.27
2017-09-25T11:20:51.905Z,100807.06
2017-09-25T11:23:19.363Z,100797.96
2017-09-25T11:25:46.934Z,100799.55
2017-09-25T11:28:14.403Z,100795.38
2017-09-25T11:30:41.941Z,100795.79
2017-09-25T11:33:09.501Z,100794.88
2017-09-25T11:35:36.981Z,100788.77
2017-09-25T11:38:04.445Z,100790.80
2017-09-25T11:40:31.975Z,100792.53
2017-09-25T11:42:59.442Z,100790.38
2017-09-25T11:45:26.914Z,100792.78
2017-09-25T11:47:54.401Z,100788.89
2017-09-25T11:50:21.847Z,100788.78
2017-09-25T11:52:49.337Z,100779.95
2017-09-25T11:55:16.813Z,100787.88
2017-09-25T11:57:44.375Z,100786.13
2017-09-25T12:00:11.827Z,100783.28
2017-09-25T12:02:39.317Z,100775.33
2017-09-25T12:05:06.760Z,100773.84
2017-09-25T12:07:34.239Z,100778.02
2017-09-25T12:10:02.110Z,100778.31
2017-09-25T12:12:29.616Z,100773.98
2017-09-25T12:14:57.094Z,100775.33
2017-09-25T12:17:24.575Z,100778.58
2017-09-25T12:19:52.097Z,100774.24
2017-09-25T12:22:19.575Z,100776.47
2017-09-25T12:24:47.025Z,100764.27
2017-09-25T12:27:14.562Z,100763.09
2017-09-25T12:29:42.122Z,100769.70
2017-09-25T12:32:09.628Z,100762.95
2017-09-25T12:34:37.085Z,100765.06
2017-09-25T12:37:04.601Z,100769.45
2017-09-25T12:39:32.157Z,100762.59
2017-09-25T12:41:59.706Z,100773.10
2017-09-25T12:44:27.193Z,100770.95
2017-09-25T12:46:54.657Z,100764.39
2017-09-25T12:49:22.193Z,100761.59
2017-09-25T12:51:49.652Z,100764.20
2017-09-25T12:54:17.199Z,100766.33
2017-09-25T12:56:44.675Z,100762.96
2017-09-25T12:59:12.164Z,100766.99
2017-09-25T13:01:39.626Z,100760.95
2017-09-25T13:04:07.142Z,100755.38
2017-09-25T13:06:34.609Z,100749.41
2017-09-25T13:09:02.079Z,100749.06
2017-09-25T13:11:29.540Z,100757.11
2017-09-25T13:13:57.425Z,100741.67
2017-09-25T13:16:24.880Z,100748.50
2017-09-25T13:18:52.337Z,100744.30
2017-09-25T13:21:19.834Z,100741.06
2017-09-25T13:23:47.384Z,100746.28
2017-09-25T13:26:14.892Z,100742.72
2017-09-25T13:28:42.354Z,100737.62
2017-09-25T13:31:09.823Z,100736.50
2017-09-25T13:33:37.277Z,100729.40
2017-09-25T13:36:04.757Z,100737.72
2017-09-25T13:38:32.236Z,100735.39
2017-09-25T13:40:59.950Z,100732.64
2017-09-25T13:43:27.434Z,100733.95
2017-09-25T13:45:54.929Z,100741.16
2017-09-25T13:48:22.390Z,100735.85
2017-09-25T13:50:49.931Z,100736.82
2017-09-25T13:53:17.393Z,100735.81
2017-09-25T13:55:44.893Z,100733.08
2017-09-25T13:58:12.392Z,100731.19
2017-09-25T14:03:12.690Z,100731.56
2017-09-25T14:05:40.177Z,100733.52
2017-09-25T14:08:07.636Z,100730.70
2017-09-25T14:10:35.122Z,100740.27
2017-09-25T14:13:02.595Z,100732.22
2017-09-25T14:15:30.122Z,100723.12
2017-09-25T14:17:57.580Z,100722.16
2017-09-25T14:20:25.059Z,100721.68
2017-09-25T14:22:52.929Z,100722.89
2017-09-25T14:25:20.401Z,100726.48
2017-09-25T14:27:47.882Z,100723.98
2017-09-25T14:30:15.390Z,100720.61
2017-09-25T14:32:42.888Z,100729.38
2017-09-25T14:35:10.353Z,100728.70
2017-09-25T14:37:37.853Z,100728.56
2017-09-25T14:40:05.316Z,100734.73
2017-09-25T14:42:32.818Z,100729.28
2017-09-25T14:45:00.289Z,100728.64
2017-09-25T14:47:27.873Z,100734.97
2017-09-25T14:49:55.434Z,100730.98
2017-09-25T14:52:22.921Z,100729.65
2017-09-25T14:54:50.471Z,100731.10
2017-09-25T14:57:17.948Z,100734.59
2017-09-25T14:59:45.394Z,100737.38
2017-09-25T15:02:12.931Z,100741.33
2017-09-25T15:04:40.477Z,100733.87
2017-09-25T15:07:07.966Z,100735.20
2017-09-25T15:09:35.426Z,100735.05
2017-09-25T15:12:02.913Z,100734.03
2017-09-25T15:14:30.405Z,100735.95
2017-09-25T15:16:57.958Z,100747.35
2017-09-25T15:19:25.400Z,100737.77
2017-09-25T15:21:52.871Z,100740.98
2017-09-25T15:24:20.465Z,100734.55
2017-09-25T15:26:47.949Z,100731.23
2017-09-25T15:29:15.395Z,100736.30
2017-09-25T15:31:42.877Z,100739.13
2017-09-25T15:34:10.341Z,100739.82
2017-09-25T15:36:37.822Z,100741.41
2017-09-25T15:39:05.396Z,100739.06
2017-09-25T15:41:32.987Z,100737.11
2017-09-25T15:44:00.456Z,100743.41
2017-09-25T15:46:28.254Z,100736.50
2017-09-25T15:48:55.703Z,100739.09
2017-09-25T15:51:23.174Z,100744.47
2017-09-25T15:53:50.678Z,100742.74
2017-09-25T15:56:18.153Z,100749.26
2017-09-25T15:58:45.639Z,100748.59
2017-09-25T16:01:13.106Z,100747.88
2017-09-25T16:03:40.593Z,100746.02
2017-09-25T16:06:08.045Z,100747.62
2017-09-25T16:08:35.528Z,100746.89
2017-09-25T16:11:02.990Z,100746.33
2017-09-25T16:13:30.489Z,100741.47
2017-09-25T16:15:58.012Z,100739.87
2017-09-25T16:18:26.179Z,100742.73
2017-09-25T16:20:53.642Z,100741.95
2017-09-25T16:23:21.124Z,100740.17
2017-09-25T16:25:48.653Z,100744.99
2017-09-25T16:28:16.145Z,100745.25
2017-09-25T16:30:43.609Z,100746.52
2017-09-25T16:33:11.095Z,100743.98
2017-09-25T16:35:38.561Z,100744.81
2017-09-25T16:38:06.043Z,100753.31
2017-09-25T16:40:33.501Z,100754.61
2017-09-25T16:43:00.985Z,100760.59
2017-09-25T16:45:28.440Z,100764.02
2017-09-25T16:47:55.925Z,100764.19
2017-09-25T16:50:23.460Z,100760.59
2017-09-25T16:52:51.029Z,100760.08
2017-09-25T16:55:18.491Z,100763.21
2017-09-25T16:57:45.988Z,100772.63
2017-09-25T17:00:13.493Z,100773.86
2017-09-25T17:02:41.050Z,100767.18
2017-09-25T17:05:08.536Z,100770.86
2017-09-25T17:07:36.003Z,100774.19
2017-09-25T17:10:03.501Z,100772.02
2017-09-25T17:12:30.957Z,100765.45
2017-09-25T17:14:58.517Z,100768.09
2017-09-25T17:17:25.973Z,100774.81
2017-09-25T17:19:53.457Z,100778.44
2017-09-25T17:22:21.017Z,100777.30
2017-09-25T17:24:48.487Z,100780.84
2017-09-25T17:27:15.997Z,100775.97
2017-09-25T17:29:43.593Z,100783.95
2017-09-25T17:32:11.139Z,100790.55
2017-09-25T17:34:38.620Z,100793.53
2017-09-25T17:37:06.090Z,100793.70
2017-09-25T17:39:33.621Z,100794.40
2017-09-25T17:42:01.178Z,100793.37
2017-09-25T17:44:28.737Z,100797.28
2017-09-25T17:46:56.288Z,100803.41
2017-09-25T17:49:23.781Z,100802.63
2017-09-25T17:51:51.299Z,100807.45
2017-09-25T17:54:18.858Z,100808.19
2017-09-25T17:56:46.321Z,100808.45
2017-09-25T17:59:13.884Z,100812.09
2017-09-25T18:01:41.460Z,100811.59
2017-09-25T18:04:08.949Z,100816.38
2017-09-25T18:06:36.420Z,100813.16
2017-09-25T18:09:03.915Z,100820.09
2017-09-25T18:11:31.489Z,100815.73
2017-09-25T18:13:58.988Z,100815.41
2017-09-25T18:16:26.449Z,100816.03
2017-09-25T18:18:53.934Z,100822.19
2017-09-25T18:21:21.380Z,100814.10
2017-09-25T18:23:48.873Z,100823.83
2017-09-25T18:26:16.406Z,100817.50
2017-09-25T18:28:43.976Z,100825.38
2017-09-25T18:31:11.580Z,100828.97
2017-09-25T18:33:39.038Z,100824.30
2017-09-25T18:36:06.525Z,100824.09
2017-09-25T18:38:33.985Z,100827.22
2017-09-25T18:41:01.459Z,100822.55
2017-09-25T18:43:29.003Z,100828.19
2017-09-25T18:45:56.490Z,100827.37
2017-09-25T18:48:23.976Z,100832.59
2017-09-25T18:50:51.627Z,100833.50
2017-09-25T18:53:19.149Z,100836.61
2017-09-25T18:55:46.637Z,100832.50
2017-09-25T18:58:14.118Z,100835.28
2017-09-25T19:00:41.595Z,100831.14
2017-09-25T19:03:09.086Z,100826.10
2017-09-25T19:05:36.580Z,100831.81
2017-09-25T19:08:04.092Z,100824.92
2017-09-25T19:10:31.662Z,100835.60
2017-09-25T19:12:59.132Z,100837.82
2017-09-25T19:15:26.674Z,100837.09
2017-09-25T19:17:54.141Z,100838.95
2017-09-25T19:20:21.685Z,100836.63
2017-09-25T19:22:49.147Z,100847.17
2017-09-25T19:25:16.644Z,100848.69
2017-09-25T19:27:44.116Z,100844.47
2017-09-25T19:30:11.605Z,100843.30
2017-09-25T19:32:39.060Z,100850.23
2017-09-25T19:35:06.558Z,100848.19
2017-09-25T19:37:34.033Z,100848.85
2017-09-25T19:40:01.538Z,100849.95
2017-09-25T19:42:28.991Z,100845.98
2017-09-25T19:44:56.445Z,100853.50
2017-09-25T19:47:23.951Z,100850.75
2017-09-25T19:52:51.942Z,100852.88
2017-09-25T19:55:35.259Z,100848.42
2017-09-25T19:58:05.115Z,100852.38
2017-09-25T20:00:32.572Z,100850.61
2017-09-25T20:03:00.069Z,100849.70
2017-09-25T20:05:27.552Z,100859.51
2017-09-25T20:07:55.045Z,100860.72
2017-09-25T20:10:22.811Z,100857.59
2017-09-25T20:12:50.304Z,100862.09
2017-09-25T20:15:19.624Z,100866.09
2017-09-25T20:17:49.025Z,100869.97
2017-09-25T20:20:16.479Z,100873.08
2017-09-25T20:22:44.021Z,100865.92
2017-09-25T20:25:11.493Z,100870.52
2017-09-25T20:27:39.029Z,100868.25
2017-09-25T20:30:06.508Z,100874.02
2017-09-25T20:32:34.001Z,100868.59
2017-09-25T20:35:01.469Z,100876.45
2017-09-25T20:37:28.957Z,100877.14
2017-09-25T20:39:56.428Z,100873.98
2017-09-25T20:42:27.380Z,100878.75
2017-09-25T20:44:54.848Z,100876.28
2017-09-25T20:47:22.334Z,100882.52
2017-09-25T20:49:49.821Z,100872.11
2017-09-25T20:52:17.368Z,100871.76
2017-09-25T20:54:44.928Z,100878.41
2017-09-25T20:57:12.422Z,100875.45
2017-09-25T20:59:39.889Z,100884.23
2017-09-25T21:02:07.400Z,100875.75
2017-09-25T21:04:34.964Z,100876.58
2017-09-25T21:07:02.477Z,100874.75
2017-09-25T21:09:29.957Z,100876.04
2017-09-25T21:11:57.435Z,100874.98
2017-09-25T21:14:25.001Z,100878.59
2017-09-25T21:16:52.557Z,100877.98
2017-09-25T21:19:20.035Z,100873.36
2017-09-25T21:21:47.503Z,100877.71
2017-09-25T21:24:14.993Z,100874.92
2017-09-25T21:29:47.262Z,100879.83
2017-09-25T21:32:14.741Z,100879.09
2017-09-25T21:34:42.231Z,100876.72
2017-09-25T21:37:09.697Z,100874.03
2017-09-25T21:39:37.186Z,100875.91
2017-09-25T21:42:04.673Z,100880.78
2017-09-25T21:44:32.161Z,100872.11
2017-09-25T21:46:59.633Z,100871.83
2017-09-25T21:49:27.182Z,100874.30
2017-09-25T21:51:54.661Z,100881.27
2017-09-25T21:54:22.164Z,100876.50
2017-09-25T21:56:49.741Z,100873.67
2017-09-25T21:59:17.256Z,100874.28
2017-09-25T22:01:44.729Z,100872.45
2017-09-25T22:04:12.322Z,100875.53
2017-09-25T22:06:39.792Z,100876.99
2017-09-25T22:09:07.338Z,100870.52
2017-09-25T22:11:34.844Z,100873.98
2017-09-25T22:14:02.340Z,100873.48
2017-09-25T22:16:29.805Z,100872.66
2017-09-25T22:18:57.369Z,100870.02
2017-09-25T22:21:24.925Z,100873.75
2017-09-25T22:23:52.422Z,100874.89
2017-09-25T22:26:19.894Z,100868.72
2017-09-25T22:28:47.356Z,100863.73
2017-09-25T22:31:14.960Z,100866.86
2017-09-25T22:33:42.434Z,100863.62
2017-09-25T22:36:09.946Z,100865.65
2017-09-25T22:38:37.417Z,100866.98
2017-09-25T22:41:04.911Z,100872.42
2017-09-25T22:43:35.146Z,100869.14
2017-09-25T22:46:02.649Z,100869.12
2017-09-25T22:48:30.215Z,100869.18
2017-09-25T22:50:57.720Z,100868.00
2017-09-25T22:53:25.188Z,100870.78
2017-09-25T22:55:52.683Z,100872.85
2017-09-25T22:58:20.145Z,100874.77
2017-09-25T23:00:47.639Z,100880.83
2017-09-25T23:03:15.108Z,100878.20
2017-09-25T23:05:58.392Z,100882.59
2017-09-25T23:08:25.850Z,100885.23
2017-09-25T23:10:53.341Z,100886.73
2017-09-25T23:13:20.817Z,100883.47
2017-09-25T23:15:48.324Z,100878.97
2017-09-25T23:18:15.801Z,100878.55
2017-09-25T23:20:43.283Z,100881.19
2017-09-25T23:23:10.735Z,100882.75
2017-09-25T23:25:38.265Z,100883.91
2017-09-25T23:28:05.734Z,100884.31
2017-09-25T23:30:38.926Z,100886.11
2017-09-25T23:33:06.405Z,100886.74
2017-09-25T23:35:33.907Z,100888.80
2017-09-25T23:38:01.463Z,100878.34
2017-09-25T23:40:28.968Z,100880.84
2017-09-25T23:42:56.436Z,100884.00
2017-09-25T23:45:23.922Z,100890.59
2017-09-25T23:47:51.387Z,100885.29
2017-09-25T23:50:18.879Z,100887.37
2017-09-25T23:52:46.352Z,100887.09
2017-09-25T23:55:13.877Z,100887.13
2017-09-25T23:57:41.433Z,100887.80
